Strona główna
METAR-TAF:

METAR-TAF

Lotnisko :

Port lotniczy Użhorod

Użhorod, Ukraina

Szerokość geograficzna: 48-38-05N, Długość geograficzna: 022-15-53E, wysokość: 117 m

Aktualna obserwacja pogody

Raport powstał 25 minut temu, godzina 09:30 UTC
Cisza
Temperatura 27°C
Wilgotność 54%
Ciśnienie 1018 hPa
Widzialność 10 km lub więcej

METAR: UKLU 180930Z 00000MPS 9999 NSC 27/17 Q1018 R10/090070 NOSIG

czas: 12:55 (09:55 UTC)

Prognoza

Raport powstał 1 godzina i 50 minut temu, godzina 08:05 UTC
Prognoza ważna od 18 godzina 09 UTC do 18 godzina 18 UTC
Wiatr 2 kt z kierunków zmiennych
Widzialność 10 km lub więcej
Przejściowo
od 18 godzina 09 UTC do 18 godzina 15 UTC
Wiatr 10 kt od zachodnio-północny zachód w porywach dochodzący do 19 kt
Rozproszone chmury na wysokości 4000 ft, Cumulonimbus.

TAF: UKLU 180805Z 1809/1818 VRB01MPS 9999 NSC TX31/1814Z TN25/1818Z TEMPO 1809/1815 30005G10MPS SCT040CB

Obserwacja i prognoza pogody dla ponad 4000 lotnisk (raport METAR i TAF).

Dostępne stacje oznaczono żółtymi i czerwonymi punktami na mapie.

Najedź kursorem aby zobaczyć nazwę stacji.

Kliknij aby zobaczyć obserwacje i prognozy pogody.

Aby zmienić mapę: kliknij na zielony przycisk z czarnym krzyżykiem, aby powiększyć; na zielony przycisk z myślnikiem, aby pomniejszyć; na zielone strzałki, aby przejść do map sąsiednich.


METAR-TAF: